Chicago, IL (60638)

1:59 AM CDT on May 04, 2015 (GMT -0500)
Midway Airport SE corner runway 13C 12/08/05 7:15 pm Sothwest 737-7H4 flight12460499.004.99999 | | Change Station
CLOSE
Current Station
Nearby Weather Stations

Elev 620 ft 41.78 °N, 87.74 °W | Updated 3 minutes ago

Partly Cloudy
Partly Cloudy
66.2 °F
Feels Like 66.2 °F
N
7.0
Wind Variable Wind from SSW
Gusts 17.0 mph

Today
High -- | Low -- °F
--% Chance of Precip.
Yesterday
High -- | Low -- °F
Precip. -- in
5:43 AM 7:52 PM
Full, 100% visible
Pressure 29.89 in
Visibility 10.0 miles
Clouds Few 25000 ft
Dew Point 42 °F
Humidity 42%
Rainfall -999.00 in
Snow Depth Not available.
UV 0 out of 12
Pollen 10.80 out of 12
Air Quality Not available.
Flu Activity Local Activity
METAR KMDW 040653Z 21011G21KT 10SM FEW250 20/08 A2992 RMK AO2 SLP122 T02000083

More Conditions Fewer Conditions

Pressure 29.89 in
Visibility 10.0 miles
Clouds Few 25000 ft
Dew Point 42 °F
Humidity 42%
Rainfall -999.00 in
Snow Depth Not available.
UV 0 out of 12
Pollen 10.80 out of 12
Air Quality Not available.
Flu Activity Local Activity
METAR KMDW 040653Z 21011G21KT 10SM FEW250 20/08 A2992 RMK AO2 SLP122 T02000083

More Conditions Fewer Conditions

Nepal has a long way to go to dig out and rebuild from a devastating earthquake. We have teamed up with several charities and organizations to make contributing to the relief effort as easy as possible.
How you can help: Portlight Strategies | Red Cross

10-Day Weather Forecast

Almanac

Astronomy

May. 04, 2015 Rise Set
Actual Time
Civil Twilight
Nautical Twilight
Astronomical Twilight
Moon
Length of Visible Light
Length of Day
Tomorrow will be .
, % of the Moon is Illuminated

Today's Extremes

State Highs State Lows

Community

WunderPhotos

Upload Photos

1,818,534 photos uploaded!

WunderBlogs® & News

Nearby

Air Quality

  Air Quality AQ Index Pollutant
Not available.

Snow Depth

Station Depth Elevation

Earthquake Activity

City Distance Mag. Time & Date
Minimum magnitude displayed is 2.5.

Coastal Water Temperatures

Place Temperature

Stations

Nearby Weather Stations

Station Location Temp. Windchill Dew Point Humidity Wind Precip. Elev Updated Type